createdAt,value
2018-09-04T00:00:14.922Z,5.50
2018-09-04T00:01:14.912Z,5.50
2018-09-04T00:02:14.902Z,5.50
2018-09-04T00:03:14.893Z,5.60
2018-09-04T00:04:14.899Z,8.20
2018-09-04T00:05:14.881Z,7.30
2018-09-04T00:06:15.212Z,6.70
2018-09-04T00:07:15.205Z,6.50
2018-09-04T00:08:14.863Z,5.60
2018-09-04T00:09:15.191Z,5.80
2018-09-04T00:10:14.859Z,5.30
2018-09-04T00:11:15.192Z,4.80
2018-09-04T00:12:14.835Z,6.20
2018-09-04T00:13:15.164Z,5.10
2018-09-04T00:14:14.814Z,5.30
2018-09-04T00:15:14.835Z,5.50
2018-09-04T00:16:14.831Z,5.30
2018-09-04T00:17:14.819Z,5.60
2018-09-04T00:18:14.788Z,5.90
2018-09-04T00:19:14.805Z,5.40
2018-09-04T00:20:14.775Z,5.10
2018-09-04T00:21:14.769Z,5.30
2018-09-04T00:22:14.757Z,5.50
2018-09-04T00:23:15.087Z,6.20
2018-09-04T00:24:15.085Z,5.90
2018-09-04T00:25:14.733Z,4.80
2018-09-04T00:26:14.721Z,6.00
2018-09-04T00:27:15.057Z,6.90
2018-09-04T00:28:14.717Z,5.10
2018-09-04T00:29:14.707Z,6.50
2018-09-04T00:30:15.061Z,5.10
2018-09-04T00:31:14.687Z,5.00
2018-09-04T00:32:14.679Z,6.80
2018-09-04T00:33:14.675Z,5.00
2018-09-04T00:34:15.034Z,6.80
2018-09-04T00:35:14.654Z,5.70
2018-09-04T00:36:15.186Z,5.00
2018-09-04T00:37:15.226Z,6.80
2018-09-04T00:38:15.078Z,8.40
2018-09-04T00:39:14.980Z,7.10
2018-09-04T00:40:14.624Z,5.50
2018-09-04T00:41:14.615Z,6.80
2018-09-04T00:42:14.960Z,5.70
2018-09-04T00:43:14.931Z,5.90
2018-09-04T00:44:14.598Z,5.20
2018-09-04T00:45:14.935Z,5.30
2018-09-04T00:46:14.910Z,5.20
2018-09-04T00:47:14.575Z,4.90
2018-09-04T00:48:14.564Z,6.20
2018-09-04T00:49:14.560Z,6.80
2018-09-04T00:50:14.881Z,7.30
2018-09-04T00:51:14.535Z,5.30
2018-09-04T00:52:14.532Z,5.50
2018-09-04T00:53:14.532Z,4.90
2018-09-04T00:54:14.853Z,6.90
2018-09-04T00:55:14.863Z,6.80
2018-09-04T00:56:14.854Z,5.30
2018-09-04T00:57:14.497Z,6.10
2018-09-04T00:58:14.510Z,6.20
2018-09-04T01:00:47.626Z,5.50
2018-09-04T01:01:46.523Z,5.00
2018-09-04T01:03:39.877Z,5.90
2018-09-04T01:04:39.872Z,6.30
2018-09-04T01:06:33.686Z,5.30
2018-09-04T01:07:33.209Z,6.10
2018-09-04T01:09:26.079Z,7.60
2018-09-04T01:10:26.067Z,6.10
2018-09-04T01:12:19.602Z,5.50
2018-09-04T01:13:19.405Z,5.10
2018-09-04T01:15:13.095Z,5.70
2018-09-04T01:16:12.772Z,5.40
2018-09-04T01:18:06.293Z,4.90
2018-09-04T01:19:06.088Z,5.40
2018-09-04T01:20:59.443Z,5.90
2018-09-04T01:21:59.425Z,6.10
2018-09-04T01:23:53.323Z,5.10
2018-09-04T01:24:52.793Z,5.30
2018-09-04T01:26:46.465Z,6.50
2018-09-04T01:27:46.107Z,5.50
2018-09-04T01:29:39.673Z,7.70
2018-09-04T01:30:39.439Z,6.30
2018-09-04T01:32:32.787Z,5.20
2018-09-04T01:33:32.797Z,5.90
2018-09-04T01:35:26.332Z,5.80
2018-09-04T01:36:26.111Z,5.90
2018-09-04T01:38:19.459Z,9.50
2018-09-04T01:39:19.782Z,7.90
2018-09-04T01:41:13.333Z,5.70
2018-09-04T01:42:13.143Z,5.50
2018-09-04T01:44:06.130Z,7.30
2018-09-04T01:45:06.124Z,5.60
2018-09-04T01:46:59.636Z,7.20
2018-09-04T01:47:59.472Z,8.20
2018-09-04T01:49:52.812Z,7.80
2018-09-04T01:50:52.805Z,6.70
2018-09-04T01:52:46.599Z,6.80
2018-09-04T01:53:46.148Z,8.50
2018-09-04T01:55:39.822Z,7.70
2018-09-04T01:56:39.480Z,6.60
2018-09-04T01:58:33.084Z,7.10
2018-09-04T01:59:32.813Z,9.10
2018-09-04T02:01:26.171Z,7.90
2018-09-04T02:02:26.160Z,8.30
2018-09-04T02:04:19.747Z,6.70
2018-09-04T02:05:19.498Z,6.70
2018-09-04T02:07:12.842Z,7.50
2018-09-04T02:08:12.853Z,8.90
2018-09-04T02:10:06.633Z,11.70
2018-09-04T02:11:06.402Z,8.00
2018-09-04T02:12:59.741Z,9.80
2018-09-04T02:13:59.749Z,9.70
2018-09-04T02:15:54.428Z,10.00
2018-09-04T02:16:53.860Z,9.10
2018-09-04T02:18:47.559Z,7.20
2018-09-04T02:19:47.537Z,7.90
2018-09-04T02:21:40.759Z,8.00
2018-09-04T02:22:40.547Z,8.20
2018-09-04T02:24:33.887Z,11.20
2018-09-04T02:25:34.210Z,7.20
2018-09-04T02:27:27.286Z,9.90
2018-09-04T02:28:26.731Z,7.30
2018-09-04T02:30:20.084Z,11.20
2018-09-04T02:31:20.072Z,8.80
2018-09-04T02:33:14.028Z,11.70
2018-09-04T02:34:13.415Z,9.30
2018-09-04T02:36:06.868Z,7.10
2018-09-04T02:37:06.755Z,6.70
2018-09-04T02:39:00.342Z,7.40
2018-09-04T02:40:00.088Z,9.10
2018-09-04T02:41:53.794Z,9.00
2018-09-04T02:42:53.428Z,9.00
2018-09-04T02:44:46.999Z,10.60
2018-09-04T02:45:46.769Z,9.70
2018-09-04T02:47:40.249Z,11.00
2018-09-04T02:48:40.459Z,11.80
2018-09-04T02:50:33.993Z,10.80
2018-09-04T02:51:33.449Z,12.80
2018-09-04T02:53:27.126Z,13.90
2018-09-04T02:54:26.790Z,15.30
2018-09-04T02:56:23.124Z,15.40
2018-09-04T02:57:20.462Z,14.30
2018-09-04T02:59:13.896Z,11.80
2018-09-04T03:00:13.458Z,13.90
2018-09-04T03:02:07.365Z,12.20
2018-09-04T03:03:06.818Z,13.30
2018-09-04T03:05:00.268Z,15.70
2018-09-04T03:06:00.176Z,15.60
2018-09-04T03:07:54.244Z,19.00
2018-09-04T03:08:53.821Z,12.60
2018-09-04T03:10:46.842Z,10.40
2018-09-04T03:11:47.166Z,11.30
2018-09-04T03:13:40.385Z,14.20
2018-09-04T03:14:40.172Z,10.00
2018-09-04T03:16:33.511Z,10.90
2018-09-04T03:17:33.508Z,10.10
2018-09-04T03:19:30.738Z,12.00
2018-09-04T03:20:27.182Z,13.90
2018-09-04T03:22:20.196Z,11.40
2018-09-04T03:23:20.193Z,13.30
2018-09-04T03:25:13.748Z,10.90
2018-09-04T03:26:13.536Z,10.00
2018-09-04T03:28:07.475Z,13.00
2018-09-04T03:29:06.871Z,14.00
2018-09-04T03:31:03.912Z,10.70
2018-09-04T03:32:00.206Z,9.20
2018-09-04T03:33:53.559Z,12.10
2018-09-04T03:34:53.563Z,11.40
2018-09-04T03:36:47.129Z,11.60
2018-09-04T03:37:46.897Z,12.40
2018-09-04T03:39:40.271Z,12.90
2018-09-04T03:40:40.561Z,11.00
2018-09-04T03:42:37.205Z,12.60
2018-09-04T03:43:33.579Z,9.40
2018-09-04T03:45:26.768Z,11.10
2018-09-04T03:46:26.436Z,10.80
2018-09-04T03:48:19.984Z,12.10
2018-09-04T03:49:19.786Z,11.00
2018-09-04T03:51:12.633Z,10.70
2018-09-04T03:52:12.651Z,10.20
2018-09-04T03:55:41.398Z,9.30
2018-09-04T03:56:37.560Z,11.20
2018-09-04T03:58:31.046Z,9.90
2018-09-04T03:59:30.924Z,11.00
2018-09-04T04:01:28.117Z,11.30
2018-09-04T04:02:24.231Z,10.40
2018-09-04T04:04:17.583Z,10.20
2018-09-04T04:05:17.570Z,10.90
2018-09-04T04:07:14.819Z,8.30
2018-09-04T04:08:10.905Z,9.60
2018-09-04T04:10:04.281Z,8.60
2018-09-04T04:11:04.576Z,11.40
2018-09-04T04:12:57.801Z,9.60
2018-09-04T04:13:57.588Z,12.00
2018-09-04T04:15:50.937Z,9.50
2018-09-04T04:16:50.941Z,11.80
2018-09-04T04:18:45.192Z,9.10
2018-09-04T04:19:44.951Z,10.60
2018-09-04T04:21:37.892Z,10.40
2018-09-04T04:22:37.816Z,10.60
2018-09-04T04:24:31.402Z,10.20
2018-09-04T04:25:31.155Z,8.40
2018-09-04T04:27:24.509Z,8.70
2018-09-04T04:28:24.826Z,8.10
2018-09-04T04:30:18.077Z,9.50
2018-09-04T04:31:17.831Z,10.50
2018-09-04T04:33:11.052Z,11.20
2018-09-04T04:34:11.037Z,8.70
2018-09-04T04:36:04.247Z,8.90
2018-09-04T04:37:04.029Z,8.90
2018-09-04T04:39:01.312Z,8.30
2018-09-04T04:39:57.799Z,8.80
2018-09-04T04:41:51.352Z,11.50
2018-09-04T04:42:50.712Z,13.60
2018-09-04T04:44:44.061Z,11.20
2018-09-04T04:45:44.036Z,13.30
2018-09-04T04:47:37.169Z,8.80
2018-09-04T04:48:36.900Z,8.80
2018-09-04T04:50:30.345Z,11.40
2018-09-04T04:51:30.249Z,9.30
2018-09-04T04:53:26.018Z,8.70
2018-09-04T04:54:23.583Z,8.10
2018-09-04T04:56:16.928Z,9.90
2018-09-04T04:57:16.911Z,9.20
2018-09-04T04:59:14.587Z,9.50
2018-09-04T05:00:10.281Z,12.80
2018-09-04T05:02:03.137Z,10.30
2018-09-04T05:03:03.453Z,6.90
2018-09-04T05:04:56.673Z,8.70
2018-09-04T05:05:56.487Z,7.30
2018-09-04T05:07:49.814Z,8.90
2018-09-04T05:08:49.803Z,8.30
2018-09-04T05:10:46.476Z,10.50
2018-09-04T05:11:43.150Z,7.80
2018-09-04T05:13:36.828Z,8.40
2018-09-04T05:14:36.492Z,8.50
2018-09-04T05:16:30.466Z,8.80
2018-09-04T05:17:30.177Z,9.00
2018-09-04T05:19:23.178Z,8.80
2018-09-04T05:20:23.491Z,8.60
2018-09-04T05:22:20.100Z,7.80
2018-09-04T05:23:16.499Z,10.00
2018-09-04T05:25:10.185Z,8.80
2018-09-04T05:26:09.832Z,8.20
2018-09-04T05:28:02.909Z,8.50
2018-09-04T05:29:02.721Z,8.40
2018-09-04T05:30:56.059Z,7.90
2018-09-04T05:31:56.047Z,7.80
2018-09-04T05:33:52.759Z,8.50
2018-09-04T05:34:49.398Z,9.40
2018-09-04T05:36:43.126Z,10.40
2018-09-04T05:37:42.733Z,10.00
2018-09-04T05:41:07.889Z,10.90
2018-09-04T05:42:07.662Z,9.40
2018-09-04T05:44:01.464Z,7.20
2018-09-04T05:45:01.789Z,8.30
2018-09-04T05:46:55.026Z,9.70
2018-09-04T05:47:54.786Z,9.00
2018-09-04T05:49:48.138Z,10.00
2018-09-04T05:50:48.131Z,9.90
2018-09-04T05:52:41.678Z,7.80
2018-09-04T05:53:41.471Z,7.60
2018-09-04T05:55:34.916Z,8.00
2018-09-04T05:56:34.825Z,8.70
2018-09-04T05:58:32.146Z,7.40
2018-09-04T05:59:28.170Z,6.70
2018-09-04T06:01:21.513Z,8.20
2018-09-04T06:02:21.841Z,7.30
2018-09-04T06:04:19.063Z,8.10
2018-09-04T06:05:14.846Z,8.30
2018-09-04T06:07:08.618Z,7.00
2018-09-04T06:08:07.735Z,8.10
2018-09-04T06:10:01.265Z,7.00
2018-09-04T06:11:01.042Z,8.80
2018-09-04T06:12:54.495Z,8.40
2018-09-04T06:13:54.404Z,6.20
2018-09-04T06:15:51.761Z,8.70
2018-09-04T06:16:47.716Z,8.50
2018-09-04T06:18:41.086Z,8.10
2018-09-04T06:19:41.063Z,8.50
2018-09-04T06:21:34.708Z,9.70
2018-09-04T06:22:34.500Z,8.80
2018-09-04T06:24:27.837Z,9.50
2018-09-04T06:25:28.161Z,9.50
2018-09-04T06:27:21.360Z,9.20
2018-09-04T06:28:21.540Z,7.50
2018-09-04T06:30:15.116Z,7.90
2018-09-04T06:31:14.885Z,10.50
2018-09-04T06:33:08.085Z,9.50
2018-09-04T06:34:08.208Z,7.60
2018-09-04T06:36:01.554Z,7.80
2018-09-04T06:37:01.191Z,9.70
2018-09-04T06:38:55.118Z,8.10
2018-09-04T06:39:54.864Z,10.80
2018-09-04T06:41:48.223Z,8.70
2018-09-04T06:42:47.868Z,9.60
2018-09-04T06:44:41.767Z,7.50
2018-09-04T06:45:41.561Z,8.40
2018-09-04T06:47:34.909Z,7.90
2018-09-04T06:48:34.883Z,9.90
2018-09-04T06:50:28.058Z,7.30
2018-09-04T06:51:28.223Z,7.70
2018-09-04T06:53:21.248Z,8.20
2018-09-04T06:54:21.232Z,8.90
2018-09-04T06:56:14.777Z,8.90
2018-09-04T06:57:14.904Z,7.70
2018-09-04T06:58:14.563Z,9.30
2018-09-04T06:59:14.906Z,7.70
2018-09-04T07:00:14.551Z,9.90
2018-09-04T07:01:14.871Z,8.70
2018-09-04T07:02:14.534Z,8.00
2018-09-04T07:03:14.855Z,8.10
2018-09-04T07:04:14.525Z,6.90
2018-09-04T07:05:14.515Z,7.90
2018-09-04T07:06:14.510Z,9.70
2018-09-04T07:07:14.501Z,7.10
2018-09-04T07:08:14.827Z,9.10
2018-09-04T07:09:14.486Z,6.70
2018-09-04T07:10:14.481Z,6.90
2018-09-04T07:11:14.800Z,8.30
2018-09-04T07:12:14.488Z,6.00
2018-09-04T07:13:14.467Z,5.00
2018-09-04T07:14:14.784Z,6.30
2018-09-04T07:15:14.466Z,6.00
2018-09-04T07:16:14.425Z,5.80
2018-09-04T07:17:14.760Z,7.50
2018-09-04T07:18:14.418Z,6.30
2018-09-04T07:19:14.762Z,6.80
2018-09-04T07:20:14.400Z,6.40
2018-09-04T07:21:14.402Z,7.60
2018-09-04T07:22:14.389Z,6.50
2018-09-04T07:23:14.388Z,6.10
2018-09-04T07:24:14.429Z,6.10
2018-09-04T07:25:14.363Z,5.80
2018-09-04T07:26:14.355Z,5.50
2018-09-04T07:27:14.357Z,5.60
2018-09-04T07:28:14.354Z,6.50
2018-09-04T07:29:14.339Z,8.00
2018-09-04T07:30:14.686Z,6.80
2018-09-04T07:31:14.323Z,7.30
2018-09-04T07:32:14.649Z,8.20
2018-09-04T07:33:14.314Z,7.10
2018-09-04T07:34:14.647Z,5.80
2018-09-04T07:35:14.290Z,6.00
2018-09-04T07:36:14.294Z,7.00
2018-09-04T07:37:14.286Z,6.90
2018-09-04T07:38:14.605Z,6.00
2018-09-04T07:39:14.625Z,5.80
2018-09-04T07:40:14.290Z,7.40
2018-09-04T07:41:14.253Z,7.10
2018-09-04T07:42:14.593Z,7.00
2018-09-04T07:43:14.270Z,8.00
2018-09-04T07:44:14.261Z,7.00
2018-09-04T07:45:14.557Z,8.00
2018-09-04T07:46:14.222Z,7.50
2018-09-04T07:47:14.226Z,8.20
2018-09-04T07:48:14.534Z,9.00
2018-09-04T07:49:14.199Z,5.40
2018-09-04T07:50:14.183Z,7.50
2018-09-04T07:51:14.179Z,8.60
2018-09-04T07:52:14.171Z,7.80
2018-09-04T07:53:14.498Z,6.40
2018-09-04T07:54:14.164Z,8.30
2018-09-04T07:55:14.151Z,6.70
2018-09-04T07:56:14.478Z,7.80
2018-09-04T07:57:14.183Z,9.50
2018-09-04T07:58:14.459Z,6.80
2018-09-04T07:59:14.123Z,6.90
2018-09-04T08:00:14.121Z,6.10
2018-09-04T08:01:14.439Z,8.80
2018-09-04T08:02:14.451Z,7.70
2018-09-04T08:03:14.118Z,7.10
2018-09-04T08:04:14.420Z,6.60
2018-09-04T08:05:14.412Z,6.40
2018-09-04T08:06:14.406Z,6.00
2018-09-04T08:07:14.058Z,7.50
2018-09-04T08:08:14.054Z,7.60
2018-09-04T08:09:14.047Z,6.40
2018-09-04T08:10:14.090Z,6.70
2018-09-04T08:11:14.030Z,6.60
2018-09-04T08:12:14.357Z,7.00
2018-09-04T08:13:14.020Z,7.70
2018-09-04T08:14:14.023Z,7.90
2018-09-04T08:15:14.339Z,7.20
2018-09-04T08:16:14.025Z,7.10
2018-09-04T08:17:14.322Z,7.50
2018-09-04T08:18:13.986Z,8.40
2018-09-04T08:19:14.310Z,6.60
2018-09-04T08:20:14.009Z,10.00
2018-09-04T08:21:14.293Z,7.30
2018-09-04T08:22:13.954Z,6.40
2018-09-04T08:23:13.950Z,6.80
2018-09-04T08:24:13.937Z,7.80
2018-09-04T08:25:13.929Z,8.50
2018-09-04T08:26:13.967Z,6.70
2018-09-04T08:27:13.925Z,5.80
2018-09-04T08:28:13.909Z,6.00
2018-09-04T08:29:13.924Z,7.70
2018-09-04T08:30:14.227Z,6.80
2018-09-04T08:31:13.886Z,6.50
2018-09-04T08:32:13.924Z,7.50
2018-09-04T08:33:13.922Z,6.90
2018-09-04T08:34:13.865Z,6.70
2018-09-04T08:35:14.206Z,6.50
2018-09-04T08:37:49.854Z,6.10
2018-09-04T08:38:45.902Z,6.30
2018-09-04T08:40:39.265Z,7.40
2018-09-04T08:41:39.256Z,8.00
2018-09-04T08:43:36.742Z,7.00
2018-09-04T08:44:32.588Z,8.20
2018-09-04T08:46:25.934Z,7.80
2018-09-04T08:47:26.285Z,7.70
2018-09-04T08:49:19.825Z,8.10
2018-09-04T08:50:19.271Z,7.20
2018-09-04T08:52:13.542Z,6.80
2018-09-04T08:53:12.949Z,6.40
2018-09-04T08:55:06.530Z,6.80
2018-09-04T08:56:05.957Z,7.40
2018-09-04T08:57:59.340Z,8.00
2018-09-04T08:58:59.312Z,6.40
2018-09-04T09:00:53.455Z,6.10
2018-09-04T09:01:52.973Z,6.40
2018-09-04T09:03:46.015Z,7.50
2018-09-04T09:04:45.984Z,7.60
2018-09-04T09:06:43.005Z,7.60
2018-09-04T09:07:39.322Z,6.20
2018-09-04T09:09:32.677Z,6.50
2018-09-04T09:10:32.671Z,6.20
2018-09-04T09:12:26.231Z,7.50
2018-09-04T09:13:26.005Z,6.20
2018-09-04T09:16:51.535Z,6.00
2018-09-04T09:17:51.413Z,5.70
2018-09-04T09:19:45.394Z,7.40
2018-09-04T09:20:44.741Z,6.90
2018-09-04T09:22:38.109Z,5.70
2018-09-04T09:23:38.092Z,6.00
2018-09-04T09:25:35.687Z,5.90
2018-09-04T09:26:31.424Z,6.00
2018-09-04T09:28:24.775Z,7.30
2018-09-04T09:29:25.096Z,6.30
2018-09-04T09:31:18.314Z,6.30
2018-09-04T09:32:18.119Z,5.90
2018-09-04T09:34:11.547Z,6.80
2018-09-04T09:35:11.508Z,6.60
2018-09-04T09:37:04.891Z,6.40
2018-09-04T09:38:04.326Z,5.90
2018-09-04T09:39:58.011Z,4.90
2018-09-04T09:40:57.668Z,6.20
2018-09-04T09:42:51.810Z,6.50
2018-09-04T09:43:51.032Z,5.80
2018-09-04T09:45:44.367Z,6.30
2018-09-04T09:46:44.692Z,6.50
2018-09-04T09:48:41.995Z,6.60
2018-09-04T09:49:38.050Z,7.00
2018-09-04T09:51:31.044Z,6.40
2018-09-04T09:52:31.457Z,6.90
2018-09-04T09:54:24.609Z,6.20
2018-09-04T09:55:24.708Z,6.00
2018-09-04T09:57:17.728Z,7.10
2018-09-04T09:58:18.068Z,6.20
2018-09-04T10:00:11.290Z,6.40
2018-09-04T10:01:11.053Z,6.50
2018-09-04T10:03:04.407Z,9.10
2018-09-04T10:04:04.441Z,6.50
2018-09-04T10:05:04.385Z,7.80
2018-09-04T10:06:04.386Z,6.70
2018-09-04T10:07:04.379Z,7.10
2018-09-04T10:08:04.783Z,6.80
2018-09-04T10:09:04.388Z,7.50
2018-09-04T10:10:04.401Z,7.00
2018-09-04T10:11:04.420Z,6.30
2018-09-04T10:12:04.345Z,7.10
2018-09-04T10:13:04.666Z,5.90
2018-09-04T10:14:04.346Z,7.20
2018-09-04T10:15:04.314Z,6.40
2018-09-04T10:16:04.305Z,6.90
2018-09-04T10:17:04.314Z,6.00
2018-09-04T10:18:04.643Z,7.50
2018-09-04T10:19:04.287Z,6.60
2018-09-04T10:20:04.374Z,5.50
2018-09-04T10:21:04.272Z,6.10
2018-09-04T10:22:04.259Z,6.40
2018-09-04T10:23:04.259Z,6.90
2018-09-04T10:24:04.248Z,6.20
2018-09-04T10:25:04.272Z,5.90
2018-09-04T10:26:04.234Z,6.10
2018-09-04T10:27:04.227Z,6.10
2018-09-04T10:28:04.222Z,7.20
2018-09-04T10:29:04.236Z,6.80
2018-09-04T10:30:04.556Z,6.50
2018-09-04T10:31:04.537Z,6.10
2018-09-04T10:32:04.195Z,7.40
2018-09-04T10:33:04.186Z,7.20
2018-09-04T10:34:04.176Z,7.80
2018-09-04T10:35:04.173Z,6.80
2018-09-04T10:36:04.172Z,6.50
2018-09-04T10:37:04.503Z,7.10
2018-09-04T10:38:04.147Z,7.20
2018-09-04T10:39:04.491Z,9.00
2018-09-04T10:40:04.131Z,5.80
2018-09-04T10:41:04.129Z,6.70
2018-09-04T10:42:04.174Z,6.00
2018-09-04T10:43:04.113Z,6.90
2018-09-04T10:44:04.105Z,6.60
2018-09-04T10:45:04.091Z,7.00
2018-09-04T10:46:04.086Z,7.50
2018-09-04T10:47:04.080Z,7.10
2018-09-04T10:48:04.122Z,7.20
2018-09-04T10:49:04.069Z,6.70
2018-09-04T10:50:04.394Z,7.00
2018-09-04T10:51:04.385Z,7.00
2018-09-04T10:52:04.398Z,7.30
2018-09-04T10:53:04.035Z,8.70
2018-09-04T10:54:04.057Z,7.70
2018-09-04T10:55:04.053Z,6.50
2018-09-04T10:56:04.047Z,7.50
2018-09-04T10:57:04.341Z,8.50
2018-09-04T10:58:04.030Z,7.10
2018-09-04T10:59:03.994Z,7.90
2018-09-04T11:00:03.985Z,8.10
2018-09-04T11:01:04.308Z,7.20
2018-09-04T11:02:03.971Z,6.50
2018-09-04T11:03:03.975Z,6.50
2018-09-04T11:04:03.951Z,7.00
2018-09-04T11:05:03.955Z,6.70
2018-09-04T11:06:03.943Z,6.70
2018-09-04T11:07:03.937Z,6.50
2018-09-04T11:08:03.926Z,7.60
2018-09-04T11:09:03.958Z,6.40
2018-09-04T11:10:04.039Z,8.80
2018-09-04T11:11:03.938Z,9.70
2018-09-04T11:12:03.893Z,5.90
2018-09-04T11:13:03.885Z,6.70
2018-09-04T11:14:03.880Z,6.80
2018-09-04T11:15:03.874Z,7.40
2018-09-04T11:16:03.870Z,5.90
2018-09-04T11:17:04.196Z,6.80
2018-09-04T11:18:03.858Z,6.80
2018-09-04T11:19:04.180Z,6.80
2018-09-04T11:20:03.843Z,6.90
2018-09-04T11:21:03.834Z,6.40
2018-09-04T11:22:03.826Z,6.50
2018-09-04T11:23:03.819Z,7.70
2018-09-04T11:24:03.807Z,5.80
2018-09-04T11:25:03.804Z,7.50
2018-09-04T11:26:04.142Z,9.10
2018-09-04T11:27:04.139Z,6.60
2018-09-04T11:28:03.786Z,7.40
2018-09-04T11:29:03.782Z,6.30
2018-09-04T11:30:03.772Z,5.90
2018-09-04T11:31:03.769Z,7.50
2018-09-04T11:32:03.748Z,6.30
2018-09-04T11:33:03.749Z,6.40
2018-09-04T11:34:03.729Z,5.70
2018-09-04T11:35:03.729Z,8.50
2018-09-04T11:36:03.727Z,6.90
2018-09-04T11:38:03.715Z,7.10
2018-09-04T11:39:03.706Z,7.60
2018-09-04T11:40:04.032Z,6.60
2018-09-04T11:41:03.709Z,6.50
2018-09-04T11:42:03.679Z,6.40
2018-09-04T11:43:03.668Z,7.00
2018-09-04T11:44:04.001Z,7.20
2018-09-04T11:45:03.658Z,7.10
2018-09-04T11:46:03.991Z,6.30
2018-09-04T11:47:03.718Z,6.60
2018-09-04T11:48:03.640Z,7.10
2018-09-04T11:49:03.630Z,7.20
2018-09-04T11:50:03.620Z,6.50
2018-09-04T11:51:03.941Z,5.70
2018-09-04T11:52:03.613Z,6.20
2018-09-04T11:53:03.601Z,6.30
2018-09-04T11:54:03.924Z,6.60
2018-09-04T11:55:03.583Z,7.20
2018-09-04T11:56:03.566Z,6.80
2018-09-04T11:57:03.899Z,7.90
2018-09-04T11:58:03.567Z,6.60
2018-09-04T11:59:03.883Z,7.40
2018-09-04T12:00:03.539Z,6.50
2018-09-04T12:01:03.530Z,6.90
2018-09-04T12:02:03.897Z,7.90
2018-09-04T12:03:03.549Z,6.20
2018-09-04T12:04:04.000Z,6.80
2018-09-04T12:05:03.838Z,6.40
2018-09-04T12:06:03.495Z,5.90
2018-09-04T12:07:03.499Z,7.00
2018-09-04T12:08:03.476Z,6.00
2018-09-04T12:09:03.472Z,6.60
2018-09-04T12:10:03.481Z,6.70
2018-09-04T12:11:03.809Z,6.70
2018-09-04T12:12:03.806Z,6.80
2018-09-04T12:13:03.812Z,6.20
2018-09-04T12:14:03.443Z,6.60
2018-09-04T12:15:03.439Z,8.10
2018-09-04T12:16:03.431Z,8.00
2018-09-04T12:17:03.769Z,7.10
2018-09-04T12:18:03.410Z,6.40
2018-09-04T12:19:03.437Z,6.80
2018-09-04T12:20:03.755Z,6.20
2018-09-04T12:21:03.508Z,5.40
2018-09-04T12:22:03.379Z,6.80
2018-09-04T12:23:03.372Z,5.70
2018-09-04T12:24:03.360Z,5.50
2018-09-04T12:25:03.388Z,6.30
2018-09-04T12:26:03.355Z,6.30
2018-09-04T12:27:03.426Z,6.60
2018-09-04T12:28:03.667Z,5.80
2018-09-04T12:29:03.357Z,5.90
2018-09-04T12:30:03.321Z,6.20
2018-09-04T12:31:03.319Z,6.80
2018-09-04T12:32:03.308Z,7.00
2018-09-04T12:33:03.647Z,6.40
2018-09-04T12:34:03.412Z,6.90
2018-09-04T12:35:03.293Z,6.00
2018-09-04T12:36:03.275Z,6.70
2018-09-04T12:37:03.268Z,5.90
2018-09-04T12:38:03.613Z,6.20
2018-09-04T12:39:03.254Z,7.10
2018-09-04T12:40:03.245Z,6.00
2018-09-04T12:41:03.237Z,6.10
2018-09-04T12:42:03.564Z,6.30
2018-09-04T12:43:03.578Z,5.80
2018-09-04T12:44:03.214Z,6.30
2018-09-04T12:45:03.541Z,5.90
2018-09-04T12:46:03.193Z,6.60
2018-09-04T12:47:03.201Z,5.20
2018-09-04T12:48:03.223Z,6.60
2018-09-04T12:49:03.182Z,5.50
2018-09-04T12:50:03.188Z,5.60
2018-09-04T12:51:03.157Z,5.30
2018-09-04T12:52:03.204Z,6.20
2018-09-04T12:53:03.499Z,7.20
2018-09-04T12:54:03.472Z,7.30
2018-09-04T12:55:03.133Z,7.30
2018-09-04T12:56:03.117Z,6.70
2018-09-04T12:57:03.120Z,6.40
2018-09-04T12:58:03.104Z,7.10
2018-09-04T12:59:03.097Z,5.80
2018-09-04T13:00:03.098Z,6.20
2018-09-04T13:01:03.100Z,5.30
2018-09-04T13:02:03.074Z,6.50
2018-09-04T13:03:03.407Z,6.40
2018-09-04T13:04:03.066Z,6.60
2018-09-04T13:05:03.062Z,5.10
2018-09-04T13:06:03.050Z,6.70
2018-09-04T13:07:03.035Z,6.70
2018-09-04T13:08:03.375Z,5.40
2018-09-04T13:09:03.104Z,6.30
2018-09-04T13:10:03.017Z,5.40
2018-09-04T13:11:03.019Z,6.00
2018-09-04T13:12:03.009Z,5.30
2018-09-04T13:13:03.331Z,6.80
2018-09-04T13:14:03.327Z,5.30
2018-09-04T13:15:02.982Z,5.60
2018-09-04T13:16:03.311Z,5.40
2018-09-04T13:17:02.981Z,5.30
2018-09-04T13:18:02.966Z,5.70
2018-09-04T13:19:03.282Z,5.50
2018-09-04T13:20:02.942Z,6.00
2018-09-04T13:21:02.944Z,5.20
2018-09-04T13:22:03.309Z,6.30
2018-09-04T13:23:02.921Z,5.70
2018-09-04T13:24:02.920Z,5.90
2018-09-04T13:25:03.237Z,5.30
2018-09-04T13:26:03.234Z,4.90
2018-09-04T13:27:03.241Z,5.10
2018-09-04T13:28:02.889Z,5.80
2018-09-04T13:29:02.879Z,5.80
2018-09-04T13:30:03.201Z,6.00
2018-09-04T13:31:02.865Z,5.50
2018-09-04T13:32:03.188Z,5.80
2018-09-04T13:33:03.184Z,5.10
2018-09-04T13:34:02.840Z,5.40
2018-09-04T13:35:02.838Z,5.30
2018-09-04T13:36:02.850Z,5.30
2018-09-04T13:37:02.818Z,5.60
2018-09-04T13:38:02.818Z,5.50
2018-09-04T13:39:03.149Z,5.30
2018-09-04T13:40:02.792Z,6.40
2018-09-04T13:41:03.121Z,5.90
2018-09-04T13:42:02.777Z,5.70
2018-09-04T13:43:02.772Z,6.00
2018-09-04T13:44:02.769Z,5.90
2018-09-04T13:45:03.096Z,5.10
2018-09-04T13:46:03.095Z,5.10
2018-09-04T13:47:03.079Z,5.30
2018-09-04T13:48:02.738Z,5.80
2018-09-04T13:49:02.720Z,5.90
2018-09-04T13:50:02.730Z,5.20
2018-09-04T13:51:02.709Z,5.20
2018-09-04T13:52:02.705Z,4.70
2018-09-04T13:53:02.695Z,4.50
2018-09-04T13:54:02.691Z,4.60
2018-09-04T13:55:03.016Z,5.60
2018-09-04T13:56:02.690Z,5.10
2018-09-04T13:57:03.059Z,5.40
2018-09-04T13:58:02.664Z,6.10
2018-09-04T13:59:02.988Z,5.90
2018-09-04T14:00:02.646Z,4.70
2018-09-04T14:01:02.633Z,6.00
2018-09-04T14:02:02.628Z,5.30
2018-09-04T14:03:02.632Z,5.80
2018-09-04T14:04:02.610Z,5.20
2018-09-04T14:05:02.940Z,4.70
2018-09-04T14:06:02.929Z,6.00
2018-09-04T14:07:02.592Z,5.60
2018-09-04T14:08:02.588Z,5.00
2018-09-04T14:09:02.579Z,5.30
2018-09-04T14:10:02.575Z,5.10
2018-09-04T14:11:02.593Z,4.80
2018-09-04T14:12:02.774Z,5.10
2018-09-04T14:13:02.878Z,5.10
2018-09-04T14:14:02.622Z,6.00
2018-09-04T14:15:02.559Z,6.10
2018-09-04T14:16:02.524Z,5.30
2018-09-04T14:17:02.603Z,4.90
2018-09-04T14:18:02.508Z,4.50
2018-09-04T14:19:02.502Z,4.80
2018-09-04T14:20:02.501Z,4.90
2018-09-04T14:21:02.922Z,4.90
2018-09-04T14:22:02.487Z,5.40
2018-09-04T14:23:02.475Z,5.20
2018-09-04T14:24:02.470Z,5.70
2018-09-04T14:25:02.792Z,4.80
2018-09-04T14:26:02.479Z,5.50
2018-09-04T14:27:02.441Z,5.20
2018-09-04T14:28:02.770Z,5.30
2018-09-04T14:29:09.358Z,5.30
2018-09-04T14:30:16.715Z,6.70
2018-09-04T14:31:02.416Z,5.60
2018-09-04T14:32:02.433Z,5.70
2018-09-04T14:33:02.396Z,5.40
2018-09-04T14:34:02.393Z,5.90
2018-09-04T14:35:02.388Z,5.50
2018-09-04T14:36:02.750Z,6.00
2018-09-04T14:37:02.519Z,5.00
2018-09-04T14:38:02.358Z,5.10
2018-09-04T14:39:02.382Z,5.50
2018-09-04T14:40:02.354Z,6.00
2018-09-04T14:41:02.345Z,5.60
2018-09-04T14:42:02.390Z,5.20
2018-09-04T14:43:02.327Z,4.50
2018-09-04T14:44:02.317Z,6.90
2018-09-04T14:45:02.346Z,5.50
2018-09-04T14:46:02.630Z,5.50
2018-09-04T14:47:02.624Z,6.30
2018-09-04T14:48:02.345Z,5.60
2018-09-04T14:49:02.290Z,4.90
2018-09-04T14:50:02.271Z,5.60
2018-09-04T14:51:02.592Z,6.40
2018-09-04T14:52:02.595Z,5.00
2018-09-04T14:53:02.247Z,7.50
2018-09-04T14:54:02.572Z,5.50
2018-09-04T14:55:02.249Z,6.20
2018-09-04T14:56:02.231Z,5.40
2018-09-04T14:57:02.254Z,5.50
2018-09-04T14:58:02.215Z,4.90
2018-09-04T14:59:02.535Z,5.00
2018-09-04T15:00:02.528Z,5.00
2018-09-04T15:01:02.186Z,5.50
2018-09-04T15:02:02.209Z,6.00
2018-09-04T15:03:02.170Z,5.70
2018-09-04T15:04:02.195Z,5.20
2018-09-04T15:05:02.158Z,5.40
2018-09-04T15:06:02.235Z,5.60
2018-09-04T15:07:02.156Z,5.40
2018-09-04T15:08:02.483Z,5.10
2018-09-04T15:09:02.126Z,4.90
2018-09-04T15:10:02.120Z,5.70
2018-09-04T15:11:02.106Z,5.40
2018-09-04T15:12:02.471Z,5.00
2018-09-04T15:13:02.102Z,5.90
2018-09-04T15:14:02.117Z,5.40
2018-09-04T15:15:02.080Z,5.00
2018-09-04T15:16:02.084Z,6.10
2018-09-04T15:17:02.061Z,5.70
2018-09-04T15:18:02.056Z,5.20
2018-09-04T15:19:02.411Z,5.90
2018-09-04T15:20:02.043Z,4.90
2018-09-04T15:21:02.037Z,5.20
2018-09-04T15:22:02.039Z,4.70
2018-09-04T15:23:02.032Z,5.30
2018-09-04T15:24:02.366Z,5.20
2018-09-04T15:25:02.009Z,5.40
2018-09-04T15:26:02.336Z,4.90
2018-09-04T15:27:01.998Z,5.60
2018-09-04T15:28:01.996Z,5.60
2018-09-04T15:29:02.009Z,5.10
2018-09-04T15:30:02.304Z,5.10
2018-09-04T15:31:01.994Z,4.80
2018-09-04T15:32:02.003Z,4.50
2018-09-04T15:33:01.957Z,5.10
2018-09-04T15:34:01.935Z,5.30
2018-09-04T15:35:01.944Z,5.50
2018-09-04T15:36:02.255Z,5.00
2018-09-04T15:37:02.012Z,5.00
2018-09-04T15:38:01.920Z,5.00